Time;durP1;ratioP1;P1;durP2;ratioP2;P2;SDS_P1;SDS_P2;PMS_P1;PMS_P2;Temp;Humidity;BMP_temperature;BMP_pressure;BME280_temperature;BME280_humidity;BME280_pressure;Samples;Min_cycle;Max_cycle;Signal;HPM_P1;HPM_P2
2023/01/03 00:04:47;;;;;;;;;;;16.40;65.10;;;;;;10183599;28;92584;-62
2023/01/03 00:09:50;;;;;;;;;;;16.40;65.20;;;;;;10169483;28;94067;-61
2023/01/03 00:14:52;;;;;;;;;;;16.30;65.10;;;;;;10182695;28;94601;-61
2023/01/03 00:19:54;;;;;;;;;;;16.30;65.10;;;;;;10165193;28;95907;-61
2023/01/03 00:24:56;;;;;;;;;;;16.30;65.10;;;;;;10168154;28;94479;-61
2023/01/03 00:29:57;;;;;;;;;;;16.30;65.10;;;;;;10168139;28;93556;-61
2023/01/03 00:34:59;;;;;;;;;;;16.30;65.00;;;;;;10166794;28;93487;-61
2023/01/03 00:40:06;;;;;;;;;;;16.30;64.90;;;;;;10167041;28;93583;-60
2023/01/03 00:45:08;;;;;;;;;;;16.30;65.00;;;;;;10166819;28;93673;-61
2023/01/03 00:50:11;;;;;;;;;;;16.20;64.80;;;;;;10167017;28;94314;-61
2023/01/03 00:55:13;;;;;;;;;;;16.20;64.80;;;;;;10150590;28;93420;-61
2023/01/03 01:00:15;;;;;;;;;;;16.20;65.00;;;;;;10166251;28;93490;-61
2023/01/03 01:05:17;;;;;;;;;;;16.20;65.10;;;;;;10166111;28;94432;-61
2023/01/03 01:10:19;;;;;;;;;;;16.20;65.10;;;;;;10164396;28;96986;-61
2023/01/03 01:15:21;;;;;;;;;;;16.20;65.10;;;;;;10166496;28;94512;-60
2023/01/03 01:20:23;;;;;;;;;;;16.20;65.20;;;;;;10165187;28;94442;-62
2023/01/03 01:25:24;;;;;;;;;;;16.10;65.00;;;;;;10166418;28;93585;-61
2023/01/03 01:30:26;;;;;;;;;;;16.10;65.00;;;;;;10166372;28;94386;-61
2023/01/03 01:35:28;;;;;;;;;;;16.10;65.00;;;;;;10165206;28;94569;-61
2023/01/03 01:40:30;;;;;;;;;;;16.10;65.00;;;;;;10165958;28;93891;-61
2023/01/03 01:45:34;;;;;;;;;;;16.10;65.00;;;;;;10166959;28;93610;-61
2023/01/03 01:50:40;;;;;;;;;;;16.10;64.90;;;;;;10165463;28;93550;-59
2023/01/03 01:55:44;;;;;;;;;;;16.10;64.90;;;;;;10164509;28;93427;-61
2023/01/03 02:06:08;;;;;;;;;;;16.10;64.80;;;;;;10317468;22;95402;-60
2023/01/03 02:11:12;;;;;;;;;;;16.00;64.60;;;;;;10165467;28;93498;-60
2023/01/03 02:16:25;;;;;;;;;;;16.00;64.60;;;;;;10171235;28;93681;-60
2023/01/03 02:21:56;;;;;;;;;;;16.00;64.50;;;;;;10187157;28;93481;-60
2023/01/03 02:27:09;;;;;;;;;;;16.00;64.50;;;;;;10172427;28;93438;-60
2023/01/03 02:32:13;;;;;;;;;;;16.00;64.30;;;;;;10172660;28;93566;-60
2023/01/03 02:37:18;;;;;;;;;;;16.00;64.20;;;;;;10172899;28;92935;-60
2023/01/03 02:47:47;;;;;;;;;;;15.90;64.00;;;;;;10171724;28;94896;-60
2023/01/03 02:52:50;;;;;;;;;;;16.00;64.00;;;;;;10184227;28;96497;-62
2023/01/03 02:58:06;;;;;;;;;;;16.00;64.00;;;;;;10183835;28;92605;-60
2023/01/03 03:03:10;;;;;;;;;;;15.90;64.00;;;;;;10183634;28;93635;-60
2023/01/03 03:08:12;;;;;;;;;;;15.90;64.40;;;;;;10168229;28;93612;-60
2023/01/03 03:13:22;;;;;;;;;;;15.90;64.30;;;;;;10169470;28;93633;-60
2023/01/03 03:18:32;;;;;;;;;;;15.90;64.20;;;;;;10170477;28;93308;-61
2023/01/03 03:28:59;;;;;;;;;;;15.90;64.30;;;;;;10171009;28;93572;-61
2023/01/03 03:34:19;;;;;;;;;;;15.90;64.30;;;;;;10170573;28;93385;-61
2023/01/03 03:45:01;;;;;;;;;;;15.90;64.30;;;;;;10167231;28;96869;-60
2023/01/03 03:50:22;;;;;;;;;;;15.90;64.30;;;;;;10169648;28;93569;-60
2023/01/03 03:55:28;;;;;;;;;;;15.80;64.00;;;;;;10171003;28;94849;-61
2023/01/03 04:00:31;;;;;;;;;;;15.80;64.10;;;;;;10170091;28;93346;-60
2023/01/03 04:05:36;;;;;;;;;;;15.80;64.00;;;;;;10167902;28;94378;-61
2023/01/03 04:10:38;;;;;;;;;;;15.80;63.90;;;;;;10183477;28;93383;-60
2023/01/03 04:15:39;;;;;;;;;;;15.80;63.90;;;;;;10168960;28;93494;-60
2023/01/03 04:20:41;;;;;;;;;;;15.80;64.10;;;;;;10169351;28;93773;-61
2023/01/03 04:25:43;;;;;;;;;;;15.80;63.90;;;;;;10168052;28;94502;-60
2023/01/03 04:30:45;;;;;;;;;;;15.80;63.90;;;;;;10168418;28;93938;-60
2023/01/03 04:35:47;;;;;;;;;;;15.80;64.00;;;;;;10164728;28;96572;-60
2023/01/03 04:40:49;;;;;;;;;;;15.80;63.90;;;;;;10166483;28;93127;-61
2023/01/03 06:03:09;;;;;;;;;;;16.00;62.70;;;;;;10116497;28;92736;-61
2023/01/03 06:08:10;;;;;;;;;;;16.30;62.20;;;;;;10164949;28;93445;-60
2023/01/03 06:13:12;;;;;;;;;;;16.30;61.80;;;;;;10165863;28;93476;-61
2023/01/03 06:18:14;;;;;;;;;;;16.40;61.70;;;;;;10165700;28;93964;-60
2023/01/03 06:23:16;;;;;;;;;;;16.40;61.70;;;;;;10164905;28;93502;-60
2023/01/03 06:28:17;;;;;;;;;;;16.40;61.60;;;;;;10165594;28;93479;-60
2023/01/03 06:33:19;;;;;;;;;;;16.40;61.70;;;;;;10162538;28;95982;-60
2023/01/03 06:38:21;;;;;;;;;;;16.30;61.70;;;;;;10164188;28;94477;-60
2023/01/03 06:43:23;;;;;;;;;;;16.30;61.80;;;;;;10165394;28;93313;-60
2023/01/03 06:53:44;;;;;;;;;;;16.30;61.80;;;;;;10164921;28;94567;-60
2023/01/03 06:58:46;;;;;;;;;;;16.20;61.80;;;;;;10164351;28;93368;-60
2023/01/03 07:03:48;;;;;;;;;;;16.20;61.80;;;;;;10171061;28;94513;-59
2023/01/03 07:08:50;;;;;;;;;;;16.20;61.90;;;;;;10171692;28;93903;-61
2023/01/03 07:13:57;;;;;;;;;;;16.10;62.50;;;;;;10170950;28;93529;-61
2023/01/03 07:18:59;;;;;;;;;;;16.10;62.30;;;;;;10171240;28;93430;-61
2023/01/03 07:24:02;;;;;;;;;;;16.10;62.30;;;;;;10167822;28;96239;-61
2023/01/03 07:29:05;;;;;;;;;;;16.10;62.50;;;;;;10170515;28;93033;-61
2023/01/03 07:34:07;;;;;;;;;;;16.10;62.50;;;;;;10184319;28;94344;-61
2023/01/03 07:39:09;;;;;;;;;;;16.00;63.90;;;;;;10170430;28;94552;-60
2023/01/03 07:44:10;;;;;;;;;;;16.00;63.90;;;;;;10170029;28;92808;-61
2023/01/03 07:49:12;;;;;;;;;;;16.00;64.00;;;;;;10170170;28;93503;-60
2023/01/03 07:54:14;;;;;;;;;;;16.00;64.20;;;;;;10169877;28;93472;-61
2023/01/03 07:59:16;;;;;;;;;;;16.00;64.60;;;;;;10170656;28;92771;-61
2023/01/03 08:04:17;;;;;;;;;;;16.00;64.70;;;;;;10168964;28;94217;-61
2023/01/03 08:14:51;;;;;;;;;;;15.90;64.40;;;;;;10145987;28;95902;-61
2023/01/03 08:19:53;;;;;;;;;;;15.90;64.20;;;;;;10169133;28;93591;-61
2023/01/03 08:24:54;;;;;;;;;;;15.80;64.30;;;;;;10183812;28;94401;-60
2023/01/03 08:29:56;;;;;;;;;;;15.80;64.30;;;;;;10169213;28;94507;-61
2023/01/03 08:34:58;;;;;;;;;;;15.80;64.30;;;;;;10167296;28;93506;-61
2023/01/03 08:40:01;;;;;;;;;;;15.80;64.20;;;;;;10168762;28;94620;-61
2023/01/03 08:45:05;;;;;;;;;;;15.70;64.10;;;;;;10167625;28;94584;-61
2023/01/03 08:50:08;;;;;;;;;;;15.70;64.10;;;;;;10183092;28;92938;-60
2023/01/03 08:55:10;;;;;;;;;;;15.70;64.10;;;;;;10167963;28;94484;-60
2023/01/03 09:00:11;;;;;;;;;;;15.70;64.10;;;;;;10167764;28;94588;-60
2023/01/03 09:05:14;;;;;;;;;;;15.70;64.10;;;;;;10164154;28;96218;-60
2023/01/03 09:10:16;;;;;;;;;;;15.60;64.10;;;;;;10167297;28;94028;-60
2023/01/03 09:15:18;;;;;;;;;;;15.60;65.40;;;;;;10166991;28;93469;-60
2023/01/03 09:20:19;;;;;;;;;;;15.60;63.90;;;;;;10167363;28;93795;-62
2023/01/03 09:25:21;;;;;;;;;;;15.60;64.70;;;;;;10167414;28;93488;-59
2023/01/03 09:30:23;;;;;;;;;;;15.70;63.70;;;;;;10166508;28;94879;-60
2023/01/03 09:35:25;;;;;;;;;;;15.70;63.70;;;;;;10166825;28;93482;-60
2023/01/03 09:40:28;;;;;;;;;;;15.80;63.70;;;;;;10167655;28;92789;-60
2023/01/03 09:45:32;;;;;;;;;;;15.80;63.80;;;;;;10180668;28;93637;-60
2023/01/03 09:50:36;;;;;;;;;;;15.80;63.80;;;;;;10167926;28;95881;-60
2023/01/03 10:06:46;;;;;;;;;;;15.70;63.90;;;;;;10165938;28;94568;-60
2023/01/03 10:12:05;;;;;;;;;;;15.70;63.90;;;;;;10166482;28;93485;-61
2023/01/03 10:17:20;;;;;;;;;;;15.70;64.00;;;;;;10165814;28;114100;-59
2023/01/03 10:22:26;;;;;;;;;;;15.60;64.00;;;;;;10166214;28;94223;-60
2023/01/03 10:27:29;;;;;;;;;;;15.60;64.20;;;;;;10165768;28;93595;-60
2023/01/03 10:32:31;;;;;;;;;;;15.60;64.10;;;;;;10166254;28;93914;-60
2023/01/03 10:37:33;;;;;;;;;;;15.50;64.20;;;;;;10171189;28;93308;-60
2023/01/03 10:42:35;;;;;;;;;;;15.50;64.20;;;;;;10172439;28;93457;-60
2023/01/03 10:47:37;;;;;;;;;;;15.50;64.30;;;;;;10184015;28;97271;-60
2023/01/03 10:52:40;;;;;;;;;;;15.50;64.40;;;;;;10172795;28;95082;-60
2023/01/03 10:57:55;;;;;;;;;;;15.40;64.30;;;;;;10172278;28;94480;-60
2023/01/03 11:03:11;;;;;;;;;;;15.40;64.50;;;;;;10186359;28;94363;-60
2023/01/03 11:08:32;;;;;;;;;;;15.50;64.40;;;;;;10140043;28;95483;-60
2023/01/03 11:13:40;;;;;;;;;;;15.60;64.30;;;;;;10132296;28;92613;-60
2023/01/03 11:18:43;;;;;;;;;;;15.60;64.30;;;;;;10131773;28;92626;-59
2023/01/03 11:24:03;;;;;;;;;;;15.60;64.20;;;;;;10131518;28;92681;-60
2023/01/03 11:29:23;;;;;;;;;;;15.60;64.20;;;;;;10131120;28;93535;-60
2023/01/03 11:34:31;;;;;;;;;;;15.60;64.20;;;;;;10130596;28;93471;-60
2023/01/03 11:39:52;;;;;;;;;;;15.60;64.20;;;;;;10128861;28;95306;-60
2023/01/03 11:45:01;;;;;;;;;;;15.60;64.30;;;;;;10129909;28;94535;-59
2023/01/03 11:50:23;;;;;;;;;;;15.60;64.30;;;;;;10131108;28;94621;-60
2023/01/03 11:55:47;;;;;;;;;;;15.60;64.40;;;;;;10129505;28;94767;-60
2023/01/03 12:00:57;;;;;;;;;;;15.60;64.50;;;;;;10142780;28;93470;-60
2023/01/03 12:06:07;;;;;;;;;;;15.50;64.50;;;;;;10143706;28;94793;-60
2023/01/03 12:11:11;;;;;;;;;;;15.50;64.50;;;;;;10170395;28;93473;-60
2023/01/03 12:16:22;;;;;;;;;;;15.50;64.70;;;;;;10171372;28;92996;-60
2023/01/03 12:21:37;;;;;;;;;;;15.50;64.80;;;;;;10169485;28;93533;-60
2023/01/03 12:26:40;;;;;;;;;;;15.40;64.70;;;;;;10183949;28;93429;-60
2023/01/03 12:31:45;;;;;;;;;;;15.40;64.80;;;;;;10167538;28;96991;-60
2023/01/03 12:37:03;;;;;;;;;;;15.40;64.80;;;;;;10183581;28;93865;-60
2023/01/03 12:42:09;;;;;;;;;;;15.40;64.70;;;;;;10168875;28;93427;-61
2023/01/03 12:47:26;;;;;;;;;;;15.40;64.80;;;;;;10168460;28;93513;-60
2023/01/03 12:52:29;;;;;;;;;;;15.50;64.70;;;;;;10168898;28;94354;-60
2023/01/03 12:57:42;;;;;;;;;;;15.50;64.70;;;;;;10167848;28;94463;-60
2023/01/03 13:02:52;;;;;;;;;;;15.50;64.60;;;;;;10168497;28;94586;-60
2023/01/03 13:08:01;;;;;;;;;;;15.60;64.70;;;;;;10167848;28;93189;-60
2023/01/03 13:13:03;;;;;;;;;;;15.50;64.70;;;;;;10167597;28;93622;-60
2023/01/03 13:18:20;;;;;;;;;;;15.50;64.60;;;;;;10167753;28;93414;-60
2023/01/03 13:23:27;;;;;;;;;;;15.50;64.70;;;;;;10164653;28;96709;-59
2023/01/03 13:28:30;;;;;;;;;;;15.50;64.70;;;;;;10167532;28;93478;-60
2023/01/03 13:33:41;;;;;;;;;;;15.50;64.70;;;;;;10167306;28;94676;-60
2023/01/03 13:38:42;;;;;;;;;;;15.50;64.80;;;;;;10166289;28;94436;-60
2023/01/03 13:43:47;;;;;;;;;;;15.50;64.90;;;;;;10166892;28;94696;-59
2023/01/03 13:48:56;;;;;;;;;;;15.50;64.90;;;;;;10165950;28;94467;-59
2023/01/03 13:53:58;;;;;;;;;;;15.50;65.00;;;;;;10167038;28;94279;-60
2023/01/03 13:59:02;;;;;;;;;;;15.40;64.90;;;;;;10168142;28;93774;-59
2023/01/03 14:04:12;;;;;;;;;;;15.40;65.00;;;;;;10166810;28;93103;-59
2023/01/03 14:09:25;;;;;;;;;;;15.40;65.00;;;;;;10182740;28;92645;-60
2023/01/03 14:14:29;;;;;;;;;;;15.40;65.10;;;;;;10170176;28;95619;-60
2023/01/03 14:19:35;;;;;;;;;;;15.40;65.20;;;;;;10173001;28;94478;-60
2023/01/03 14:24:50;;;;;;;;;;;15.40;65.00;;;;;;10172078;28;93543;-60
2023/01/03 14:29:53;;;;;;;;;;;15.40;65.10;;;;;;10172712;28;94610;-59
2023/01/03 14:34:55;;;;;;;;;;;15.40;65.00;;;;;;10172071;28;93360;-59
2023/01/03 14:40:00;;;;;;;;;;;15.50;65.00;;;;;;10172363;28;93600;-58
2023/01/03 14:45:03;;;;;;;;;;;15.50;65.00;;;;;;10170259;28;93662;-59
2023/01/03 14:50:06;;;;;;;;;;;15.50;65.00;;;;;;10173529;28;93759;-60
2023/01/03 14:55:13;;;;;;;;;;;15.50;65.00;;;;;;10171552;28;93356;-60
2023/01/03 15:00:16;;;;;;;;;;;15.50;65.00;;;;;;10171501;28;93447;-60
2023/01/03 15:05:27;;;;;;;;;;;15.50;65.00;;;;;;10168359;28;95889;-60
2023/01/03 15:10:31;;;;;;;;;;;15.40;64.90;;;;;;10170694;28;93518;-59
2023/01/03 15:15:37;;;;;;;;;;;15.40;65.00;;;;;;10171281;28;93629;-60
2023/01/03 15:20:40;;;;;;;;;;;15.40;65.00;;;;;;10170980;28;93772;-60
2023/01/03 15:25:42;;;;;;;;;;;15.40;65.00;;;;;;10171336;28;93306;-60
2023/01/03 15:30:47;;;;;;;;;;;15.40;65.00;;;;;;10170663;28;94449;-60
2023/01/03 15:35:50;;;;;;;;;;;15.40;65.00;;;;;;10170857;28;94359;-60
2023/01/03 15:40:51;;;;;;;;;;;15.30;65.00;;;;;;10169720;28;92757;-60
2023/01/03 15:46:00;;;;;;;;;;;15.40;65.00;;;;;;10170532;28;94908;-60
2023/01/03 15:51:03;;;;;;;;;;;15.30;64.90;;;;;;10184636;28;93286;-60
2023/01/03 15:56:07;;;;;;;;;;;15.30;65.00;;;;;;10181838;28;96085;-60
2023/01/03 16:01:08;;;;;;;;;;;15.30;65.00;;;;;;10169924;28;93774;-60
2023/01/03 16:06:10;;;;;;;;;;;15.30;65.00;;;;;;10169256;28;94222;-60
2023/01/03 16:11:14;;;;;;;;;;;15.40;64.90;;;;;;10170142;28;94501;-60
2023/01/03 16:16:23;;;;;;;;;;;15.40;64.90;;;;;;10168845;28;94493;-60
2023/01/03 16:21:26;;;;;;;;;;;15.40;64.90;;;;;;10168613;28;94442;-61
2023/01/03 16:26:27;;;;;;;;;;;15.40;64.80;;;;;;10168857;28;93544;-60
2023/01/03 16:31:30;;;;;;;;;;;15.40;64.80;;;;;;10169220;28;93737;-60
2023/01/03 16:36:35;;;;;;;;;;;15.40;64.80;;;;;;10168262;28;94674;-60
2023/01/03 16:41:37;;;;;;;;;;;15.40;64.70;;;;;;10168757;28;93804;-59
2023/01/03 16:46:39;;;;;;;;;;;15.40;64.70;;;;;;10166280;28;95815;-59
2023/01/03 16:51:42;;;;;;;;;;;15.30;64.80;;;;;;10168666;28;93462;-60
2023/01/03 16:56:50;;;;;;;;;;;15.40;64.80;;;;;;10168327;28;93654;-59
2023/01/03 17:01:52;;;;;;;;;;;15.30;64.80;;;;;;10167263;28;93536;-59
2023/01/03 17:06:54;;;;;;;;;;;15.30;64.70;;;;;;10167026;28;93813;-60
2023/01/03 17:11:56;;;;;;;;;;;15.30;64.70;;;;;;10165800;28;93518;-60
2023/01/03 17:16:57;;;;;;;;;;;15.30;64.80;;;;;;10167330;28;93716;-59
2023/01/03 17:21:59;;;;;;;;;;;15.30;64.80;;;;;;10182918;28;92838;-60
2023/01/03 17:27:02;;;;;;;;;;;15.30;64.90;;;;;;10166467;28;94340;-60
2023/01/03 17:32:09;;;;;;;;;;;15.30;64.80;;;;;;10182039;28;93474;-60
2023/01/03 17:37:13;;;;;;;;;;;15.30;64.80;;;;;;10164762;28;95870;-60
2023/01/03 17:42:15;;;;;;;;;;;15.40;64.80;;;;;;10167409;28;94642;-60
2023/01/03 17:52:42;;;;;;;;;;;15.40;64.70;;;;;;10167199;28;94542;-60
2023/01/03 17:57:44;;;;;;;;;;;15.30;64.70;;;;;;10166852;28;94036;-61
2023/01/03 18:02:46;;;;;;;;;;;15.40;64.70;;;;;;10167370;28;93444;-60
2023/01/03 18:07:48;;;;;;;;;;;15.30;64.60;;;;;;10166464;28;93366;-60
2023/01/03 18:12:50;;;;;;;;;;;15.30;64.60;;;;;;10167069;28;92599;-60
2023/01/03 18:17:52;;;;;;;;;;;15.30;64.60;;;;;;10180652;28;93677;-61
2023/01/03 18:22:53;;;;;;;;;;;15.30;64.60;;;;;;10166465;28;94748;-60
2023/01/03 18:27:57;;;;;;;;;;;15.30;64.80;;;;;;10163153;28;96550;-60
2023/01/03 18:32:59;;;;;;;;;;;15.30;64.70;;;;;;10166000;28;94370;-61
2023/01/03 18:38:01;;;;;;;;;;;15.30;64.60;;;;;;10164906;28;93644;-60
2023/01/03 18:43:11;;;;;;;;;;;15.20;64.60;;;;;;10165103;28;94490;-60
2023/01/03 18:48:14;;;;;;;;;;;15.20;64.60;;;;;;10165626;28;93496;-60
2023/01/03 18:53:27;;;;;;;;;;;15.20;64.60;;;;;;10164985;28;94473;-60
2023/01/03 18:58:36;;;;;;;;;;;15.20;64.60;;;;;;10171370;28;94452;-60
2023/01/03 19:03:38;;;;;;;;;;;15.20;64.50;;;;;;10173134;28;92910;-60
2023/01/03 19:08:40;;;;;;;;;;;15.20;64.60;;;;;;10171896;28;93500;-60
2023/01/03 19:13:50;;;;;;;;;;;15.10;64.50;;;;;;10171473;28;94333;-59
2023/01/03 19:18:52;;;;;;;;;;;15.10;64.70;;;;;;10169110;28;95863;-59
2023/01/03 19:23:57;;;;;;;;;;;15.10;64.70;;;;;;10172382;28;94491;-59
2023/01/03 19:29:00;;;;;;;;;;;15.10;64.70;;;;;;10185569;28;93705;-60
2023/01/03 19:34:02;;;;;;;;;;;15.10;64.70;;;;;;10171441;28;93679;-59
2023/01/03 19:39:04;;;;;;;;;;;15.10;64.70;;;;;;10170996;28;94072;-60
2023/01/03 19:44:07;;;;;;;;;;;15.10;64.70;;;;;;10170280;28;94470;-60
2023/01/03 19:49:13;;;;;;;;;;;15.10;64.70;;;;;;10171399;28;94460;-60
2023/01/03 19:54:15;;;;;;;;;;;15.10;64.70;;;;;;10171425;28;93391;-60
2023/01/03 19:59:22;;;;;;;;;;;15.10;64.80;;;;;;10169340;28;94093;-60
2023/01/03 20:04:23;;;;;;;;;;;15.10;64.80;;;;;;10169940;28;93563;-61
2023/01/03 20:09:25;;;;;;;;;;;15.10;64.70;;;;;;10166512;28;96826;-60
2023/01/03 20:14:27;;;;;;;;;;;15.10;64.80;;;;;;10169077;28;94514;-60
2023/01/03 20:19:29;;;;;;;;;;;15.00;64.80;;;;;;10169243;28;94079;-60
2023/01/03 20:24:32;;;;;;;;;;;15.00;64.70;;;;;;10183996;28;94218;-60
2023/01/03 20:29:33;;;;;;;;;;;15.10;64.90;;;;;;10169453;28;93509;-60
2023/01/03 20:34:36;;;;;;;;;;;15.10;64.80;;;;;;10169223;28;93387;-59
2023/01/03 20:39:38;;;;;;;;;;;15.10;64.80;;;;;;10168737;28;94506;-60
2023/01/03 20:44:40;;;;;;;;;;;15.00;64.80;;;;;;10170472;28;93824;-60
2023/01/03 20:49:41;;;;;;;;;;;15.00;64.80;;;;;;10169272;28;94064;-60
2023/01/03 20:54:43;;;;;;;;;;;15.00;64.80;;;;;;10167489;28;94522;-60
2023/01/03 20:59:45;;;;;;;;;;;15.00;64.80;;;;;;10166490;28;96771;-60
2023/01/03 21:04:47;;;;;;;;;;;15.00;64.80;;;;;;10167480;28;93484;-60
2023/01/03 21:09:48;;;;;;;;;;;15.00;64.80;;;;;;10183714;28;94775;-60
2023/01/03 21:14:50;;;;;;;;;;;15.00;64.80;;;;;;10168442;28;94336;-61
2023/01/03 21:19:52;;;;;;;;;;;15.00;64.80;;;;;;10166121;28;93538;-60
2023/01/03 21:24:53;;;;;;;;;;;15.00;64.80;;;;;;10167495;28;94581;-60
2023/01/03 21:29:58;;;;;;;;;;;14.90;64.80;;;;;;10167410;28;94531;-60
2023/01/03 21:35:00;;;;;;;;;;;15.00;64.80;;;;;;10168486;28;92402;-60
2023/01/03 21:40:02;;;;;;;;;;;14.90;64.70;;;;;;10167035;28;93276;-60
2023/01/03 21:45:06;;;;;;;;;;;15.00;64.90;;;;;;10167396;28;94331;-60
2023/01/03 21:50:09;;;;;;;;;;;14.90;64.90;;;;;;10162383;28;96935;-60
2023/01/03 21:55:11;;;;;;;;;;;14.90;64.90;;;;;;10167954;28;93358;-60
2023/01/03 22:00:13;;;;;;;;;;;14.90;64.80;;;;;;10166757;28;93654;-59
2023/01/03 22:05:14;;;;;;;;;;;14.90;64.90;;;;;;10165461;28;94456;-60
2023/01/03 22:10:17;;;;;;;;;;;14.90;64.90;;;;;;10166480;28;93693;-60
2023/01/03 22:15:20;;;;;;;;;;;14.90;66.00;;;;;;10166525;28;94184;-60
2023/01/03 22:20:23;;;;;;;;;;;15.00;64.90;;;;;;10166100;28;93746;-60
2023/01/03 22:25:24;;;;;;;;;;;15.00;64.90;;;;;;10166485;28;93730;-59
2023/01/03 22:30:26;;;;;;;;;;;15.00;64.90;;;;;;10167780;28;94541;-60
2023/01/03 22:35:28;;;;;;;;;;;15.00;64.80;;;;;;10172785;28;93536;-59
2023/01/03 22:40:30;;;;;;;;;;;15.00;64.90;;;;;;10170104;28;96016;-59
2023/01/03 22:45:31;;;;;;;;;;;15.00;64.80;;;;;;10172374;28;92466;-60
2023/01/03 22:50:33;;;;;;;;;;;15.00;64.80;;;;;;10172991;28;94019;-60
2023/01/03 22:55:39;;;;;;;;;;;15.00;64.80;;;;;;10171993;28;93376;-60
2023/01/03 23:00:41;;;;;;;;;;;15.00;64.80;;;;;;10171846;28;93567;-60
2023/01/03 23:05:43;;;;;;;;;;;15.00;64.80;;;;;;10171351;28;94668;-60
2023/01/03 23:10:44;;;;;;;;;;;14.90;64.80;;;;;;10171680;28;94448;-60
2023/01/03 23:15:46;;;;;;;;;;;14.90;64.90;;;;;;10172331;28;93751;-61
2023/01/03 23:20:48;;;;;;;;;;;14.90;64.90;;;;;;10171739;28;94497;-61
2023/01/03 23:25:50;;;;;;;;;;;14.90;64.90;;;;;;10172283;28;93505;-60
2023/01/03 23:30:51;;;;;;;;;;;14.90;64.90;;;;;;10167676;28;95991;-60
2023/01/03 23:35:53;;;;;;;;;;;14.90;64.90;;;;;;10170918;28;94597;-60
2023/01/03 23:40:55;;;;;;;;;;;14.90;65.00;;;;;;10170821;28;93896;-60
2023/01/03 23:45:57;;;;;;;;;;;14.90;65.00;;;;;;10168888;28;94495;-60
2023/01/03 23:51:06;;;;;;;;;;;14.90;65.10;;;;;;10170877;28;93503;-61
2023/01/03 23:56:11;;;;;;;;;;;14.90;65.10;;;;;;10170393;28;94437;-59
